sensor_id;sensor_type;location;lat;lon;timestamp;pressure;altitude;pressure_sealevel;temperature;humidity
64544;BME280;50936;51.660;5.616;2024-03-06T00:00:07;101379.72;;;9.52;82.97
64544;BME280;50936;51.660;5.616;2024-03-06T00:02:55;101386.25;;;9.48;82.74
64544;BME280;50936;51.660;5.616;2024-03-06T00:05:42;101381.22;;;9.42;82.64
64544;BME280;50936;51.660;5.616;2024-03-06T00:08:29;101385.03;;;9.38;82.88
64544;BME280;50936;51.660;5.616;2024-03-06T00:11:17;101393.28;;;9.35;82.89
64544;BME280;50936;51.660;5.616;2024-03-06T00:14:04;101398.84;;;9.32;82.86
64544;BME280;50936;51.660;5.616;2024-03-06T00:16:52;101399.03;;;9.29;83.03
64544;BME280;50936;51.660;5.616;2024-03-06T00:19:39;101396.41;;;9.27;83.02
64544;BME280;50936;51.660;5.616;2024-03-06T00:22:26;101395.72;;;9.23;83.12
64544;BME280;50936;51.660;5.616;2024-03-06T00:25:15;101400.22;;;9.23;83.15
64544;BME280;50936;51.660;5.616;2024-03-06T00:28:02;101403.03;;;9.21;83.26
64544;BME280;50936;51.660;5.616;2024-03-06T00:30:49;101387.34;;;9.12;83.30
64544;BME280;50936;51.660;5.616;2024-03-06T00:33:37;101409.63;;;9.16;83.64
64544;BME280;50936;51.660;5.616;2024-03-06T00:36:24;101392.03;;;9.09;83.92
64544;BME280;50936;51.660;5.616;2024-03-06T00:39:12;101404.38;;;9.13;83.75
64544;BME280;50936;51.660;5.616;2024-03-06T00:42:02;101411.75;;;9.09;83.62
64544;BME280;50936;51.660;5.616;2024-03-06T00:44:49;101416.28;;;9.09;83.50
64544;BME280;50936;51.660;5.616;2024-03-06T00:47:37;101405.75;;;9.04;83.60
64544;BME280;50936;51.660;5.616;2024-03-06T00:50:24;101413.81;;;9.04;83.58
64544;BME280;50936;51.660;5.616;2024-03-06T00:53:12;101413.03;;;9.02;83.63
64544;BME280;50936;51.660;5.616;2024-03-06T00:55:59;101413.19;;;8.99;83.39
64544;BME280;50936;51.660;5.616;2024-03-06T00:58:46;101414.25;;;8.96;83.36
64544;BME280;50936;51.660;5.616;2024-03-06T01:01:34;101416.31;;;8.91;83.46
64544;BME280;50936;51.660;5.616;2024-03-06T01:04:22;101432.31;;;8.94;83.61
64544;BME280;50936;51.660;5.616;2024-03-06T01:07:09;101428.13;;;8.89;84.37
64544;BME280;50936;51.660;5.616;2024-03-06T01:09:57;101433.53;;;8.89;84.36
64544;BME280;50936;51.660;5.616;2024-03-06T01:12:44;101440.47;;;8.93;84.37
64544;BME280;50936;51.660;5.616;2024-03-06T01:15:32;101440.56;;;8.91;84.63
64544;BME280;50936;51.660;5.616;2024-03-06T01:18:19;101430.03;;;8.86;84.69
64544;BME280;50936;51.660;5.616;2024-03-06T01:21:07;101435.44;;;8.86;84.53
64544;BME280;50936;51.660;5.616;2024-03-06T01:23:55;101440.81;;;8.86;84.31
64544;BME280;50936;51.660;5.616;2024-03-06T01:26:42;101442.69;;;8.84;84.16
64544;BME280;50936;51.660;5.616;2024-03-06T01:29:29;101445.66;;;8.80;84.15
64544;BME280;50936;51.660;5.616;2024-03-06T01:32:16;101454.66;;;8.79;84.27
64544;BME280;50936;51.660;5.616;2024-03-06T01:35:04;101445.16;;;8.72;83.89
64544;BME280;50936;51.660;5.616;2024-03-06T01:37:53;101454.13;;;8.72;83.98
64544;BME280;50936;51.660;5.616;2024-03-06T01:40:44;101455.22;;;8.68;83.76
64544;BME280;50936;51.660;5.616;2024-03-06T01:43:37;101455.41;;;8.65;83.62
64544;BME280;50936;51.660;5.616;2024-03-06T01:46:27;101452.84;;;8.62;83.75
64544;BME280;50936;51.660;5.616;2024-03-06T01:49:15;101459.22;;;8.61;83.71
64544;BME280;50936;51.660;5.616;2024-03-06T01:52:18;101467.28;;;8.61;83.93
64544;BME280;50936;51.660;5.616;2024-03-06T01:55:08;101470.75;;;8.63;84.34
64544;BME280;50936;51.660;5.616;2024-03-06T01:57:57;101464.34;;;8.65;84.63
64544;BME280;50936;51.660;5.616;2024-03-06T02:00:44;101470.59;;;8.66;84.78
64544;BME280;50936;51.660;5.616;2024-03-06T02:03:32;101472.72;;;8.77;84.82
64544;BME280;50936;51.660;5.616;2024-03-06T02:06:21;101478.81;;;8.80;85.08
64544;BME280;50936;51.660;5.616;2024-03-06T02:09:08;101472.25;;;8.86;85.08
64544;BME280;50936;51.660;5.616;2024-03-06T02:11:56;101480.09;;;8.91;85.03
64544;BME280;50936;51.660;5.616;2024-03-06T02:14:43;101479.91;;;8.94;85.16
64544;BME280;50936;51.660;5.616;2024-03-06T02:17:30;101483.25;;;8.99;85.02
64544;BME280;50936;51.660;5.616;2024-03-06T02:20:22;101486.59;;;9.04;85.15
64544;BME280;50936;51.660;5.616;2024-03-06T02:23:11;101485.53;;;9.06;85.03
64544;BME280;50936;51.660;5.616;2024-03-06T02:25:59;101492.69;;;9.08;84.80
64544;BME280;50936;51.660;5.616;2024-03-06T02:28:47;101482.63;;;9.11;84.80
64544;BME280;50936;51.660;5.616;2024-03-06T02:31:36;101482.53;;;9.13;84.58
64544;BME280;50936;51.660;5.616;2024-03-06T02:34:26;101486.25;;;9.10;84.41
64544;BME280;50936;51.660;5.616;2024-03-06T02:37:13;101483.72;;;9.07;84.37
64544;BME280;50936;51.660;5.616;2024-03-06T02:40:00;101489.28;;;9.04;84.10
64544;BME280;50936;51.660;5.616;2024-03-06T02:42:47;101484.38;;;8.95;84.21
64544;BME280;50936;51.660;5.616;2024-03-06T02:45:34;101484.38;;;8.95;84.30
64544;BME280;50936;51.660;5.616;2024-03-06T02:48:22;101490.53;;;8.97;84.26
64544;BME280;50936;51.660;5.616;2024-03-06T02:51:09;101492.47;;;8.95;84.21
64544;BME280;50936;51.660;5.616;2024-03-06T02:53:56;101489.91;;;8.92;84.14
64544;BME280;50936;51.660;5.616;2024-03-06T02:56:43;101486.69;;;8.85;84.20
64544;BME280;50936;51.660;5.616;2024-03-06T02:59:30;101489.19;;;8.88;84.27
64544;BME280;50936;51.660;5.616;2024-03-06T03:02:18;101489.31;;;8.86;84.25
64544;BME280;50936;51.660;5.616;2024-03-06T03:05:05;101491.19;;;8.84;84.17
64544;BME280;50936;51.660;5.616;2024-03-06T03:07:53;101484.22;;;8.80;84.11
64544;BME280;50936;51.660;5.616;2024-03-06T03:10:40;101490.66;;;8.78;84.23
64544;BME280;50936;51.660;5.616;2024-03-06T03:13:27;101488.19;;;8.73;84.43
64544;BME280;50936;51.660;5.616;2024-03-06T03:16:18;101487.63;;;8.66;84.33
64544;BME280;50936;51.660;5.616;2024-03-06T03:19:08;101493.81;;;8.69;84.33
64544;BME280;50936;51.660;5.616;2024-03-06T03:21:55;101484.22;;;8.63;84.46
64544;BME280;50936;51.660;5.616;2024-03-06T03:24:42;101490.34;;;8.66;84.56
64544;BME280;50936;51.660;5.616;2024-03-06T03:27:30;101495.63;;;8.68;84.89
64544;BME280;50936;51.660;5.616;2024-03-06T03:30:17;101494.03;;;8.64;84.98
64544;BME280;50936;51.660;5.616;2024-03-06T03:33:08;101491.97;;;8.69;85.19
64544;BME280;50936;51.660;5.616;2024-03-06T03:35:56;101502.59;;;8.72;85.35
64544;BME280;50936;51.660;5.616;2024-03-06T03:38:43;101500.38;;;8.80;85.69
64544;BME280;50936;51.660;5.616;2024-03-06T03:41:30;101492.16;;;8.83;85.87
64544;BME280;50936;51.660;5.616;2024-03-06T03:44:18;101503.56;;;8.89;85.94
64544;BME280;50936;51.660;5.616;2024-03-06T03:47:06;101500.63;;;8.93;86.12
64544;BME280;50936;51.660;5.616;2024-03-06T03:49:53;101497.13;;;8.91;85.75
64544;BME280;50936;51.660;5.616;2024-03-06T03:52:55;101490.69;;;8.94;85.76
64544;BME280;50936;51.660;5.616;2024-03-06T03:55:44;101500.31;;;8.99;86.00
64544;BME280;50936;51.660;5.616;2024-03-06T03:58:32;101509.91;;;9.05;86.26
64544;BME280;50936;51.660;5.616;2024-03-06T04:01:19;101516.72;;;9.12;86.27
64544;BME280;50936;51.660;5.616;2024-03-06T04:04:06;101515.59;;;9.16;86.37
64544;BME280;50936;51.660;5.616;2024-03-06T04:06:55;101520.63;;;9.22;86.28
64544;BME280;50936;51.660;5.616;2024-03-06T04:09:42;101514.31;;;9.23;86.57
64544;BME280;50936;51.660;5.616;2024-03-06T04:12:29;101516.44;;;9.34;86.75
64544;BME280;50936;51.660;5.616;2024-03-06T04:15:17;101513.31;;;9.42;86.58
64544;BME280;50936;51.660;5.616;2024-03-06T04:18:04;101522.75;;;9.51;86.49
64544;BME280;50936;51.660;5.616;2024-03-06T04:20:52;101511.06;;;9.50;86.28
64544;BME280;50936;51.660;5.616;2024-03-06T04:23:39;101511.06;;;9.50;85.77
64544;BME280;50936;51.660;5.616;2024-03-06T04:26:26;101508.28;;;9.52;85.72
64544;BME280;50936;51.660;5.616;2024-03-06T04:29:14;101517.00;;;9.57;85.84
64544;BME280;50936;51.660;5.616;2024-03-06T04:32:01;101522.41;;;9.57;85.56
64544;BME280;50936;51.660;5.616;2024-03-06T04:34:50;101511.97;;;9.51;85.65
64544;BME280;50936;51.660;5.616;2024-03-06T04:37:37;101518.13;;;9.53;85.48
64544;BME280;50936;51.660;5.616;2024-03-06T04:40:24;101529.16;;;9.48;85.29
64544;BME280;50936;51.660;5.616;2024-03-06T04:43:12;101513.41;;;9.40;85.44
64544;BME280;50936;51.660;5.616;2024-03-06T04:45:59;101528.44;;;9.44;85.53
64544;BME280;50936;51.660;5.616;2024-03-06T04:48:46;101525.84;;;9.43;85.76
64544;BME280;50936;51.660;5.616;2024-03-06T04:51:34;101526.16;;;9.37;86.08
64544;BME280;50936;51.660;5.616;2024-03-06T04:54:21;101532.06;;;9.28;86.10
64544;BME280;50936;51.660;5.616;2024-03-06T04:57:09;101544.75;;;9.25;86.10
64544;BME280;50936;51.660;5.616;2024-03-06T04:59:56;101546.97;;;9.17;85.58
64544;BME280;50936;51.660;5.616;2024-03-06T05:02:45;101559.13;;;9.09;85.13
64544;BME280;50936;51.660;5.616;2024-03-06T05:05:50;101563.22;;;8.98;84.88
64544;BME280;50936;51.660;5.616;2024-03-06T05:08:55;101558.38;;;8.88;84.99
64544;BME280;50936;51.660;5.616;2024-03-06T05:12:00;101571.38;;;8.79;84.72
64544;BME280;50936;51.660;5.616;2024-03-06T05:15:05;101579.03;;;8.70;84.68
64544;BME280;50936;51.660;5.616;2024-03-06T05:18:10;101579.56;;;8.59;84.40
64544;BME280;50936;51.660;5.616;2024-03-06T05:21:15;101588.09;;;8.50;84.36
64544;BME280;50936;51.660;5.616;2024-03-06T05:24:20;101594.78;;;8.41;84.40
64544;BME280;50936;51.660;5.616;2024-03-06T05:27:24;101597.97;;;8.30;84.29
64544;BME280;50936;51.660;5.616;2024-03-06T05:30:30;101596.66;;;8.20;84.21
64544;BME280;50936;51.660;5.616;2024-03-06T05:33:35;101599.00;;;8.08;83.74
64544;BME280;50936;51.660;5.616;2024-03-06T05:36:39;101603.94;;;7.99;84.25
64544;BME280;50936;51.660;5.616;2024-03-06T05:39:43;101612.34;;;7.91;84.27
64544;BME280;50936;51.660;5.616;2024-03-06T05:42:48;101605.50;;;7.84;84.39
64544;BME280;50936;51.660;5.616;2024-03-06T05:45:52;101606.66;;;7.78;84.68
64544;BME280;50936;51.660;5.616;2024-03-06T05:48:57;101612.25;;;7.74;84.70
64544;BME280;50936;51.660;5.616;2024-03-06T05:52:02;101611.59;;;7.68;84.78
64544;BME280;50936;51.660;5.616;2024-03-06T05:55:07;101626.00;;;7.67;85.04
64544;BME280;50936;51.660;5.616;2024-03-06T05:58:12;101635.91;;;7.65;85.04
64544;BME280;50936;51.660;5.616;2024-03-06T06:01:03;101635.06;;;7.65;85.26
64544;BME280;50936;51.660;5.616;2024-03-06T06:03:50;101639.50;;;7.66;85.17
64544;BME280;50936;51.660;5.616;2024-03-06T06:06:38;101635.09;;;7.63;85.25
64544;BME280;50936;51.660;5.616;2024-03-06T06:09:25;101651.97;;;7.67;85.06
64544;BME280;50936;51.660;5.616;2024-03-06T06:12:13;101648.56;;;7.63;85.21
64544;BME280;50936;51.660;5.616;2024-03-06T06:15:00;101654.91;;;7.62;85.23
64544;BME280;50936;51.660;5.616;2024-03-06T06:17:48;101660.28;;;7.62;85.47
64544;BME280;50936;51.660;5.616;2024-03-06T06:20:35;101671.03;;;7.62;85.52
64544;BME280;50936;51.660;5.616;2024-03-06T06:23:23;101671.16;;;7.59;85.43
64544;BME280;50936;51.660;5.616;2024-03-06T06:26:11;101657.19;;;7.51;85.59
64544;BME280;50936;51.660;5.616;2024-03-06T06:28:58;101667.66;;;7.57;85.74
64544;BME280;50936;51.660;5.616;2024-03-06T06:31:46;101674.84;;;7.57;85.82
64544;BME280;50936;51.660;5.616;2024-03-06T06:34:33;101676.81;;;7.53;85.50
64544;BME280;50936;51.660;5.616;2024-03-06T06:37:21;101678.69;;;7.51;85.35
64544;BME280;50936;51.660;5.616;2024-03-06T06:40:09;101681.56;;;7.46;85.63
64544;BME280;50936;51.660;5.616;2024-03-06T06:42:57;101691.44;;;7.46;85.78
64544;BME280;50936;51.660;5.616;2024-03-06T06:45:44;101682.69;;;7.41;85.62
64544;BME280;50936;51.660;5.616;2024-03-06T06:48:31;101698.72;;;7.44;85.50
64544;BME280;50936;51.660;5.616;2024-03-06T06:51:20;101697.22;;;7.37;85.49
64544;BME280;50936;51.660;5.616;2024-03-06T06:54:07;101701.63;;;7.38;85.33
64544;BME280;50936;51.660;5.616;2024-03-06T06:56:55;101702.59;;;7.37;85.21
64544;BME280;50936;51.660;5.616;2024-03-06T06:59:43;101710.78;;;7.33;85.03
64544;BME280;50936;51.660;5.616;2024-03-06T07:02:30;101719.84;;;7.31;84.84
64544;BME280;50936;51.660;5.616;2024-03-06T07:05:18;101719.09;;;7.27;84.88
64544;BME280;50936;51.660;5.616;2024-03-06T07:08:06;101702.28;;;7.22;84.88
64544;BME280;50936;51.660;5.616;2024-03-06T07:10:53;101711.97;;;7.26;84.86
64544;BME280;50936;51.660;5.616;2024-03-06T07:13:42;101718.19;;;7.27;84.95
64544;BME280;50936;51.660;5.616;2024-03-06T07:16:29;101726.22;;;7.28;85.07
64544;BME280;50936;51.660;5.616;2024-03-06T07:19:17;101723.53;;;7.28;85.05
64544;BME280;50936;51.660;5.616;2024-03-06T07:22:04;101729.69;;;7.30;85.23
64544;BME280;50936;51.660;5.616;2024-03-06T07:24:51;101735.06;;;7.30;85.26
64544;BME280;50936;51.660;5.616;2024-03-06T07:27:39;101734.97;;;7.33;85.27
64544;BME280;50936;51.660;5.616;2024-03-06T07:30:26;101746.41;;;7.39;85.47
64544;BME280;50936;51.660;5.616;2024-03-06T07:33:14;101751.56;;;7.43;85.51
64544;BME280;50936;51.660;5.616;2024-03-06T07:36:01;101754.06;;;7.48;85.63
64544;BME280;50936;51.660;5.616;2024-03-06T07:38:48;101751.06;;;7.56;85.67
64544;BME280;50936;51.660;5.616;2024-03-06T07:41:36;101757.88;;;7.64;85.52
64544;BME280;50936;51.660;5.616;2024-03-06T07:44:23;101763.94;;;7.69;85.33
64544;BME280;50936;51.660;5.616;2024-03-06T07:47:10;101763.66;;;7.76;85.43
64544;BME280;50936;51.660;5.616;2024-03-06T07:50:00;101777.72;;;7.82;85.23
64544;BME280;50936;51.660;5.616;2024-03-06T07:52:47;101770.25;;;7.89;85.31
64544;BME280;50936;51.660;5.616;2024-03-06T07:55:34;101777.25;;;7.93;85.25
64544;BME280;50936;51.660;5.616;2024-03-06T07:58:22;101777.72;;;8.03;85.16
64544;BME280;50936;51.660;5.616;2024-03-06T08:01:09;101781.09;;;8.08;nan
64544;BME280;50936;51.660;5.616;2024-03-06T08:03:58;101785.38;;;8.12;85.07
64544;BME280;50936;51.660;5.616;2024-03-06T08:06:45;101788.69;;;8.19;85.13
64544;BME280;50936;51.660;5.616;2024-03-06T08:09:33;101786.66;;;8.24;85.18
64544;BME280;50936;51.660;5.616;2024-03-06T08:12:20;101798.16;;;8.27;84.95
64544;BME280;50936;51.660;5.616;2024-03-06T08:15:09;101790.88;;;8.29;85.15
64544;BME280;50936;51.660;5.616;2024-03-06T08:17:58;101804.03;;;8.37;85.60
64544;BME280;50936;51.660;5.616;2024-03-06T08:20:45;101807.31;;;8.44;85.61
64544;BME280;50936;51.660;5.616;2024-03-06T08:23:33;101811.47;;;8.51;85.53
64544;BME280;50936;51.660;5.616;2024-03-06T08:26:22;101810.19;;;8.60;85.74
64544;BME280;50936;51.660;5.616;2024-03-06T08:29:10;101808.97;;;8.67;85.52
64544;BME280;50936;51.660;5.616;2024-03-06T08:31:57;101812.09;;;8.77;85.51
64544;BME280;50936;51.660;5.616;2024-03-06T08:34:46;101819.69;;;8.88;85.08
64544;BME280;50936;51.660;5.616;2024-03-06T08:37:34;101826.53;;;8.95;85.08
64544;BME280;50936;51.660;5.616;2024-03-06T08:40:21;101821.88;;;8.98;84.84
64544;BME280;50936;51.660;5.616;2024-03-06T08:43:10;101830.47;;;9.06;85.48
64544;BME280;50936;51.660;5.616;2024-03-06T08:45:57;101824.66;;;9.16;85.30
64544;BME280;50936;51.660;5.616;2024-03-06T08:48:45;101838.19;;;9.33;85.85
64544;BME280;50936;51.660;5.616;2024-03-06T08:51:33;101835.69;;;9.48;85.85
64544;BME280;50936;51.660;5.616;2024-03-06T08:54:20;101832.31;;;9.61;85.84
64544;BME280;50936;51.660;5.616;2024-03-06T08:57:07;101840.91;;;9.70;84.99
64544;BME280;50936;51.660;5.616;2024-03-06T08:59:55;101846.31;;;9.70;84.47
64544;BME280;50936;51.660;5.616;2024-03-06T09:02:43;101843.94;;;9.81;84.61
64544;BME280;50936;51.660;5.616;2024-03-06T09:05:30;101845.22;;;9.91;84.97
64544;BME280;50936;51.660;5.616;2024-03-06T09:08:18;101848.56;;;9.96;84.28
64544;BME280;50936;51.660;5.616;2024-03-06T09:11:05;101847.19;;;10.05;84.46
64544;BME280;50936;51.660;5.616;2024-03-06T09:13:53;101849.69;;;10.10;84.67
64544;BME280;50936;51.660;5.616;2024-03-06T09:16:40;101861.91;;;10.17;84.45
64544;BME280;50936;51.660;5.616;2024-03-06T09:19:28;101865.00;;;10.27;84.88
64544;BME280;50936;51.660;5.616;2024-03-06T09:22:16;101868.22;;;10.35;85.31
64544;BME280;50936;51.660;5.616;2024-03-06T09:25:06;101875.13;;;10.40;84.99
64544;BME280;50936;51.660;5.616;2024-03-06T09:27:54;101875.72;;;10.46;85.13
64544;BME280;50936;51.660;5.616;2024-03-06T09:30:41;101878.44;;;10.46;84.81
64544;BME280;50936;51.660;5.616;2024-03-06T09:33:29;101873.94;;;10.46;84.96
64544;BME280;50936;51.660;5.616;2024-03-06T09:36:16;101865.56;;;10.51;84.83
64544;BME280;50936;51.660;5.616;2024-03-06T09:39:03;101883.03;;;10.61;84.91
64544;BME280;50936;51.660;5.616;2024-03-06T09:41:54;101888.59;;;10.58;85.40
64544;BME280;50936;51.660;5.616;2024-03-06T09:44:44;101886.38;;;10.66;85.33
64544;BME280;50936;51.660;5.616;2024-03-06T09:47:32;101887.97;;;10.70;85.35
64544;BME280;50936;51.660;5.616;2024-03-06T09:50:23;101900.00;;;10.81;85.35
64544;BME280;50936;51.660;5.616;2024-03-06T09:53:15;101900.47;;;10.89;85.84
64544;BME280;50936;51.660;5.616;2024-03-06T09:56:03;101902.69;;;10.98;85.81
64544;BME280;50936;51.660;5.616;2024-03-06T09:58:52;101909.34;;;11.08;85.98
64544;BME280;50936;51.660;5.616;2024-03-06T10:01:54;101913.28;;;11.18;85.83
64544;BME280;50936;51.660;5.616;2024-03-06T10:04:42;101912.75;;;11.28;84.82
64544;BME280;50936;51.660;5.616;2024-03-06T10:07:29;101910.75;;;11.31;84.23
64544;BME280;50936;51.660;5.616;2024-03-06T10:10:17;101916.00;;;11.34;83.77
64544;BME280;50936;51.660;5.616;2024-03-06T10:13:10;101919.25;;;11.41;84.24
64544;BME280;50936;51.660;5.616;2024-03-06T10:16:02;101917.06;;;11.48;83.75
64544;BME280;50936;51.660;5.616;2024-03-06T10:18:51;101921.88;;;11.59;83.38
64544;BME280;50936;51.660;5.616;2024-03-06T10:21:38;101916.38;;;11.76;83.93
64544;BME280;50936;51.660;5.616;2024-03-06T10:24:27;101910.72;;;12.27;84.70
64544;BME280;50936;51.660;5.616;2024-03-06T10:27:16;101917.94;;;12.87;84.54
64544;BME280;50936;51.660;5.616;2024-03-06T10:30:06;101919.31;;;13.23;83.57
64544;BME280;50936;51.660;5.616;2024-03-06T10:32:58;101911.75;;;13.84;81.26
64544;BME280;50936;51.660;5.616;2024-03-06T10:35:48;101916.72;;;14.32;79.48
64544;BME280;50936;51.660;5.616;2024-03-06T10:38:36;101918.13;;;14.65;77.69
64544;BME280;50936;51.660;5.616;2024-03-06T10:41:33;101920.53;;;14.82;74.99
64544;BME280;50936;51.660;5.616;2024-03-06T10:44:23;101915.50;;;15.01;75.28
64544;BME280;50936;51.660;5.616;2024-03-06T10:47:15;101918.66;;;15.21;73.88
64544;BME280;50936;51.660;5.616;2024-03-06T10:50:04;101911.03;;;15.39;73.09
64544;BME280;50936;51.660;5.616;2024-03-06T10:52:57;101929.56;;;15.84;69.74
64544;BME280;50936;51.660;5.616;2024-03-06T10:55:46;101916.38;;;16.26;69.23
64544;BME280;50936;51.660;5.616;2024-03-06T10:58:33;101924.25;;;16.77;69.14
64544;BME280;50936;51.660;5.616;2024-03-06T11:01:23;101921.59;;;17.11;67.46
64544;BME280;50936;51.660;5.616;2024-03-06T11:04:13;101925.69;;;17.39;65.48
64544;BME280;50936;51.660;5.616;2024-03-06T11:07:03;101935.47;;;17.64;66.57
64544;BME280;50936;51.660;5.616;2024-03-06T11:09:51;101931.75;;;17.88;61.17
64544;BME280;50936;51.660;5.616;2024-03-06T11:12:38;101926.22;;;18.11;60.46
64544;BME280;50936;51.660;5.616;2024-03-06T11:15:26;101934.81;;;18.38;59.45
64544;BME280;50936;51.660;5.616;2024-03-06T11:21:27;101936.31;;;18.84;58.13
64544;BME280;50936;51.660;5.616;2024-03-06T11:27:07;101933.75;;;19.45;53.49
64544;BME280;50936;51.660;5.616;2024-03-06T11:30:08;101941.00;;;19.86;52.47
64544;BME280;50936;51.660;5.616;2024-03-06T11:33:03;101942.03;;;20.05;50.70
64544;BME280;50936;51.660;5.616;2024-03-06T11:39:08;101944.91;;;20.13;51.23
64544;BME280;50936;51.660;5.616;2024-03-06T11:41:55;101938.47;;;20.33;51.02
64544;BME280;50936;51.660;5.616;2024-03-06T11:44:54;101946.09;;;20.39;48.48
64544;BME280;50936;51.660;5.616;2024-03-06T11:48:02;101938.75;;;20.69;48.97
64544;BME280;50936;51.660;5.616;2024-03-06T11:50:50;101946.97;;;20.89;49.23
64544;BME280;50936;51.660;5.616;2024-03-06T11:53:38;101953.69;;;21.04;44.60
64544;BME280;50936;51.660;5.616;2024-03-06T11:56:31;101957.63;;;21.02;46.75
64544;BME280;50936;51.660;5.616;2024-03-06T11:59:21;101955.31;;;20.97;47.17
64544;BME280;50936;51.660;5.616;2024-03-06T12:02:12;101954.66;;;21.23;46.93
64544;BME280;50936;51.660;5.616;2024-03-06T12:05:02;101962.19;;;21.68;46.95
64544;BME280;50936;51.660;5.616;2024-03-06T12:07:51;101950.38;;;21.85;45.87
64544;BME280;50936;51.660;5.616;2024-03-06T12:10:38;101960.22;;;22.06;41.88
64544;BME280;50936;51.660;5.616;2024-03-06T12:13:26;101957.38;;;21.98;40.61
64544;BME280;50936;51.660;5.616;2024-03-06T12:16:14;101961.88;;;21.99;40.75
64544;BME280;50936;51.660;5.616;2024-03-06T12:19:01;101962.75;;;22.17;41.23
64544;BME280;50936;51.660;5.616;2024-03-06T12:21:50;101953.75;;;22.43;42.19
64544;BME280;50936;51.660;5.616;2024-03-06T12:24:37;101955.56;;;22.96;43.02
64544;BME280;50936;51.660;5.616;2024-03-06T12:27:24;101957.66;;;23.47;37.46
64544;BME280;50936;51.660;5.616;2024-03-06T12:30:12;101956.31;;;23.59;35.42
64544;BME280;50936;51.660;5.616;2024-03-06T12:33:00;101954.88;;;23.47;37.26
64544;BME280;50936;51.660;5.616;2024-03-06T12:36:05;101954.00;;;23.12;38.45
64544;BME280;50936;51.660;5.616;2024-03-06T12:38:59;101960.88;;;23.42;38.60
64544;BME280;50936;51.660;5.616;2024-03-06T12:41:48;101963.34;;;23.79;34.46
64544;BME280;50936;51.660;5.616;2024-03-06T12:44:39;101956.50;;;24.08;35.07
64544;BME280;50936;51.660;5.616;2024-03-06T12:47:27;101952.72;;;24.17;34.69
64544;BME280;50936;51.660;5.616;2024-03-06T12:50:15;101946.75;;;24.38;34.78
64544;BME280;50936;51.660;5.616;2024-03-06T12:53:03;101949.38;;;24.56;35.79
64544;BME280;50936;51.660;5.616;2024-03-06T12:55:51;101951.78;;;24.68;34.58
64544;BME280;50936;51.660;5.616;2024-03-06T12:58:38;101952.47;;;24.62;33.26
64544;BME280;50936;51.660;5.616;2024-03-06T13:01:26;101950.56;;;24.70;34.03
64544;BME280;50936;51.660;5.616;2024-03-06T13:04:13;101942.22;;;24.13;34.66
64544;BME280;50936;51.660;5.616;2024-03-06T13:07:00;101948.50;;;23.80;35.15
64544;BME280;50936;51.660;5.616;2024-03-06T13:09:48;101945.13;;;24.11;36.24
64544;BME280;50936;51.660;5.616;2024-03-06T13:12:36;101937.09;;;24.34;35.53
64544;BME280;50936;51.660;5.616;2024-03-06T13:15:24;101944.78;;;23.98;32.78
64544;BME280;50936;51.660;5.616;2024-03-06T13:18:11;101944.75;;;23.21;33.32
64544;BME280;50936;51.660;5.616;2024-03-06T13:20:59;101943.84;;;22.50;34.21
64544;BME280;50936;51.660;5.616;2024-03-06T13:23:47;101944.16;;;21.83;34.88
64544;BME280;50936;51.660;5.616;2024-03-06T13:26:35;101944.25;;;21.91;36.11
64544;BME280;50936;51.660;5.616;2024-03-06T13:29:25;101941.16;;;22.58;37.21
64544;BME280;50936;51.660;5.616;2024-03-06T13:32:12;101941.41;;;23.43;37.94
64544;BME280;50936;51.660;5.616;2024-03-06T13:34:59;101949.97;;;24.17;35.89
64544;BME280;50936;51.660;5.616;2024-03-06T13:37:47;101956.25;;;24.69;34.98
64544;BME280;50936;51.660;5.616;2024-03-06T13:40:36;101961.06;;;25.16;35.18
64544;BME280;50936;51.660;5.616;2024-03-06T13:43:23;101966.19;;;25.52;33.38
64544;BME280;50936;51.660;5.616;2024-03-06T13:46:10;101959.19;;;25.64;32.07
64544;BME280;50936;51.660;5.616;2024-03-06T13:48:58;101967.47;;;25.72;31.88
64544;BME280;50936;51.660;5.616;2024-03-06T13:51:45;101961.59;;;25.11;31.37
64544;BME280;50936;51.660;5.616;2024-03-06T13:54:33;101963.50;;;24.94;32.30
64544;BME280;50936;51.660;5.616;2024-03-06T13:57:21;101963.13;;;24.48;31.43
64544;BME280;50936;51.660;5.616;2024-03-06T14:00:09;101962.25;;;23.72;31.11
64544;BME280;50936;51.660;5.616;2024-03-06T14:03:04;101962.13;;;23.48;32.67
64544;BME280;50936;51.660;5.616;2024-03-06T14:05:51;101964.56;;;23.59;32.98
64544;BME280;50936;51.660;5.616;2024-03-06T14:08:39;101963.22;;;23.02;32.22
64544;BME280;50936;51.660;5.616;2024-03-06T14:11:28;101962.88;;;22.61;33.14
64544;BME280;50936;51.660;5.616;2024-03-06T14:14:19;101970.56;;;22.40;34.36
64544;BME280;50936;51.660;5.616;2024-03-06T14:17:07;101962.06;;;22.15;34.81
64544;BME280;50936;51.660;5.616;2024-03-06T14:19:55;101968.09;;;21.73;35.32
64544;BME280;50936;51.660;5.616;2024-03-06T14:22:42;101962.19;;;21.21;35.76
64544;BME280;50936;51.660;5.616;2024-03-06T14:25:29;101966.19;;;20.69;36.63
64544;BME280;50936;51.660;5.616;2024-03-06T14:28:17;101969.19;;;20.27;37.05
64544;BME280;50936;51.660;5.616;2024-03-06T14:31:05;101970.28;;;19.86;37.64
64544;BME280;50936;51.660;5.616;2024-03-06T14:33:52;101960.63;;;19.51;38.20
64544;BME280;50936;51.660;5.616;2024-03-06T14:36:40;101974.59;;;19.27;38.57
64544;BME280;50936;51.660;5.616;2024-03-06T14:39:29;101964.09;;;19.01;38.88
64544;BME280;50936;51.660;5.616;2024-03-06T14:42:16;101959.88;;;19.18;39.89
64544;BME280;50936;51.660;5.616;2024-03-06T14:45:04;101980.81;;;19.90;40.32
64544;BME280;50936;51.660;5.616;2024-03-06T14:47:52;101976.09;;;20.12;39.21
64544;BME280;50936;51.660;5.616;2024-03-06T14:50:39;101975.19;;;19.92;39.64
64544;BME280;50936;51.660;5.616;2024-03-06T14:53:27;101977.34;;;19.78;39.09
64544;BME280;50936;51.660;5.616;2024-03-06T14:56:15;101973.03;;;19.55;38.70
64544;BME280;50936;51.660;5.616;2024-03-06T14:59:02;101974.09;;;19.33;39.40